Time;durP1;ratioP1;P1;durP2;ratioP2;P2;SDS_P1;SDS_P2;PMS_P1;PMS_P2;Temp;Humidity;BMP_temperature;BMP_pressure;BME280_temperature;BME280_humidity;BME280_pressure;Samples;Min_cycle;Max_cycle;Signal;HPM_P1;HPM_P2
2021/12/01 00:02:59;;;;;;;9.07;4.17;;;;;;;1.70;91.53;96997.97;2266756;78;20987;-79
2021/12/01 00:06:00;;;;;;;11.80;4.30;;;;;;;1.72;91.63;96997.99;2232132;78;21028;-81
2021/12/01 00:09:00;;;;;;;14.07;4.83;;;;;;;1.73;91.69;97009.59;2227328;78;21038;-81
2021/12/01 00:12:02;;;;;;;17.03;4.93;;;;;;;1.76;91.23;97012.25;2248315;78;20960;-82
2021/12/01 00:15:02;;;;;;;10.87;4.43;;;;;;;1.77;91.17;97030.70;2255007;78;21075;-80
2021/12/01 00:18:03;;;;;;;9.60;4.40;;;;;;;1.80;90.88;97033.33;2228920;78;20972;-81
2021/12/01 00:21:03;;;;;;;13.03;4.57;;;;;;;1.82;90.75;97034.22;2229378;78;20972;-81
2021/12/01 00:24:04;;;;;;;13.53;4.40;;;;;;;1.84;90.44;97050.55;2258378;78;20987;-80
2021/12/01 00:27:04;;;;;;;12.73;4.73;;;;;;;1.86;89.68;97051.44;2222865;78;20980;-80
2021/12/01 00:30:05;;;;;;;16.43;5.03;;;;;;;1.86;89.99;97069.87;2232252;78;21408;-80
2021/12/01 00:33:05;;;;;;;8.57;3.90;;;;;;;1.85;90.29;97069.42;2225975;78;21035;-82
2021/12/01 00:36:08;;;;;;;8.80;4.70;;;;;;;1.85;89.92;97070.70;2268155;78;20932;-81
2021/12/01 00:39:08;;;;;;;7.97;3.73;;;;;;;1.82;90.08;97086.09;2248226;78;21042;-82
2021/12/01 00:42:08;;;;;;;9.70;3.73;;;;;;;1.81;90.06;97092.94;2224173;78;21008;-81
2021/12/01 00:45:17;;;;;;;8.20;4.57;;;;;;;1.80;90.19;97098.92;2247435;78;20968;-82
2021/12/01 00:48:14;;;;;;;11.17;4.07;;;;;;;1.79;89.87;97111.77;2211238;78;20991;-81
2021/12/01 00:51:16;;;;;;;7.60;3.77;;;;;;;1.81;89.88;97115.23;2234620;78;21027;-81
2021/12/01 00:54:17;;;;;;;6.90;3.83;;;;;;;1.81;89.54;97122.53;2209515;78;21376;-80
2021/12/01 00:57:17;;;;;;;7.70;3.77;;;;;;;1.79;89.64;97134.91;2247279;78;21043;-81
2021/12/01 01:00:18;;;;;;;7.07;3.37;;;;;;;1.78;89.34;97134.05;2231517;78;20952;-81
2021/12/01 01:03:19;;;;;;;8.93;4.00;;;;;;;1.78;89.06;97139.61;2241737;78;21003;-82
2021/12/01 01:06:19;;;;;;;8.33;3.37;;;;;;;1.77;89.34;97147.75;2245019;78;21423;-81
2021/12/01 01:09:20;;;;;;;7.50;3.17;;;;;;;1.77;89.17;97157.17;2221848;78;21020;-82
2021/12/01 01:18:57;;;;;;;7.03;3.77;;;;;;;1.73;89.31;97171.65;2246944;78;21049;-82
2021/12/01 01:21:59;;;;;;;6.00;3.83;;;;;;;1.70;88.97;97181.01;2228559;78;20991;-82
2021/12/01 01:24:59;;;;;;;9.77;4.47;;;;;;;1.68;89.13;97183.55;2242168;78;21399;-82
2021/12/01 01:28:00;;;;;;;9.13;3.70;;;;;;;1.67;89.36;97193.39;2235225;78;20975;-81
2021/12/01 01:31:01;;;;;;;7.47;3.80;;;;;;;1.65;89.24;97192.49;2221966;78;21036;-81
2021/12/01 01:34:01;;;;;;;4.90;3.63;;;;;;;1.65;89.29;97198.92;2237825;78;21038;-82
2021/12/01 01:37:02;;;;;;;7.57;3.73;;;;;;;1.64;89.05;97215.19;2242608;78;20999;-81
2021/12/01 01:40:02;;;;;;;9.23;3.70;;;;;;;1.67;88.87;97207.54;2218384;78;21047;-82
2021/12/01 01:43:03;;;;;;;6.57;3.83;;;;;;;1.67;88.94;97212.68;2228666;78;21034;-81
2021/12/01 01:46:03;;;;;;;5.23;3.53;;;;;;;1.72;88.85;97221.78;2241542;78;20995;-80
2021/12/01 01:49:10;;;;;;;4.17;3.07;;;;;;;1.72;88.56;97228.20;2243195;78;20989;-79
2021/12/01 01:52:09;;;;;;;7.77;3.60;;;;;;;1.74;88.57;97244.58;2234218;78;21344;-79
2021/12/01 01:55:09;;;;;;;9.60;4.20;;;;;;;1.71;88.78;97249.63;2235062;78;20968;-80
2021/12/01 01:58:10;;;;;;;6.43;3.50;;;;;;;1.68;89.04;97250.84;2258086;78;20994;-80
2021/12/01 02:01:11;;;;;;;8.53;3.50;;;;;;;1.62;89.02;97258.02;2227020;78;20988;-82
2021/12/01 02:04:11;;;;;;;5.10;3.67;;;;;;;1.59;89.31;97265.66;2247337;78;21070;-82
2021/12/01 02:07:12;;;;;;;7.27;3.90;;;;;;;1.54;89.42;97278.84;2239646;78;21015;-80
2021/12/01 02:10:12;;;;;;;3.83;3.43;;;;;;;1.53;89.60;97284.82;2244813;78;20992;-82
2021/12/01 02:13:13;;;;;;;6.50;3.67;;;;;;;1.52;89.71;97289.09;2227622;78;21387;-82
2021/12/01 02:16:13;;;;;;;7.97;3.53;;;;;;;1.52;89.71;97295.94;2257772;78;20957;-82
2021/12/01 02:19:14;;;;;;;4.23;3.30;;;;;;;1.52;89.77;97299.80;2236827;78;20999;-81
2021/12/01 02:22:15;;;;;;;7.03;3.83;;;;;;;1.50;89.78;97309.18;2240444;78;21027;-81
2021/12/01 02:25:15;;;;;;;4.13;3.73;;;;;;;1.49;89.92;97312.17;2231001;78;21024;-83
2021/12/01 02:28:16;;;;;;;6.03;3.37;;;;;;;1.46;90.03;97310.81;2230964;78;20943;-80
2021/12/01 02:31:16;;;;;;;4.07;3.10;;;;;;;1.46;90.01;97313.38;2218917;78;21654;-81
2021/12/01 02:34:18;;;;;;;5.63;3.70;;;;;;;1.47;90.18;97325.83;2229764;78;20989;-80
2021/12/01 02:37:20;;;;;;;7.50;4.10;;;;;;;1.44;90.05;97324.47;2228578;78;21066;-80
2021/12/01 02:40:20;;;;;;;4.73;4.20;;;;;;;1.43;90.24;97330.45;2235962;78;21059;-80
2021/12/01 02:43:24;;;;;;;7.53;4.37;;;;;;;1.44;90.27;97330.48;2257820;78;20968;-80
2021/12/01 02:46:24;;;;;;;7.17;4.50;;;;;;;1.44;90.20;97352.33;2254655;78;21028;-82
2021/12/01 02:49:25;;;;;;;9.33;4.80;;;;;;;1.45;90.12;97349.34;2241340;78;20975;-81
2021/12/01 02:52:25;;;;;;;5.47;4.77;;;;;;;1.43;90.31;97354.88;2228127;78;20940;-83
2021/12/01 02:55:26;;;;;;;9.60;5.00;;;;;;;1.43;90.24;97361.30;2256564;78;20999;-81
2021/12/01 02:58:26;;;;;;;8.50;4.30;;;;;;;1.44;90.23;97369.05;2247329;78;20972;-82
2021/12/01 03:01:27;;;;;;;6.47;4.17;;;;;;;1.45;90.38;97382.36;2220810;78;20945;-81
2021/12/01 03:04:28;;;;;;;5.40;4.03;;;;;;;1.46;90.47;97393.52;2237832;78;20998;-81
2021/12/01 03:07:29;;;;;;;5.83;4.10;;;;;;;1.45;90.36;97396.91;2209685;78;21955;-82
2021/12/01 03:10:30;;;;;;;5.70;5.00;;;;;;;1.46;90.52;97403.80;2249154;78;21444;-81
2021/12/01 03:13:30;;;;;;;5.87;5.13;;;;;;;1.45;90.59;97405.50;2233982;78;20952;-79
2021/12/01 03:16:31;;;;;;;8.83;5.63;;;;;;;1.47;90.49;97414.54;2233173;78;21015;-80
2021/12/01 03:19:31;;;;;;;5.60;5.00;;;;;;;1.49;90.47;97421.45;2233845;78;21000;-82
2021/12/01 03:22:32;;;;;;;7.40;4.90;;;;;;;1.51;90.46;97427.51;2240798;78;21606;-81
2021/12/01 03:25:32;;;;;;;5.33;4.57;;;;;;;1.50;90.27;97433.90;2241783;78;20988;-81
2021/12/01 03:28:33;;;;;;;6.17;5.37;;;;;;;1.50;90.39;97436.05;2247081;78;20963;-81
2021/12/01 03:31:33;;;;;;;7.07;5.60;;;;;;;1.50;90.31;97437.75;2248449;78;21024;-80
2021/12/01 03:34:34;;;;;;;9.13;5.50;;;;;;;1.54;90.48;97442.14;2246953;78;20989;-81
2021/12/01 03:37:34;;;;;;;5.50;4.97;;;;;;;1.55;90.43;97443.88;2237740;78;21423;-81
2021/12/01 03:40:35;;;;;;;5.00;4.50;;;;;;;1.53;90.37;97458.41;2235787;78;21018;-81
2021/12/01 03:43:35;;;;;;;5.63;4.20;;;;;;;1.49;90.31;97479.73;2237561;78;20984;-81
2021/12/01 03:46:36;;;;;;;5.33;4.83;;;;;;;1.32;88.89;97493.86;2241415;79;20952;-82
2021/12/01 03:49:36;;;;;;;6.23;5.63;;;;;;;0.93;87.78;97508.66;2231912;78;21039;-82
2021/12/01 03:52:37;;;;;;;14.17;6.97;;;;;;;0.68;88.24;97530.58;2242095;78;20947;-82
2021/12/01 03:55:39;;;;;;;9.33;8.27;;;;;;;0.53;89.55;97525.45;2251226;78;21035;-82
2021/12/01 03:58:39;;;;;;;10.00;8.43;;;;;;;0.44;90.12;97520.05;2230944;79;21016;-82
2021/12/01 04:01:40;;;;;;;10.23;9.20;;;;;;;0.39;90.42;97533.16;2230623;78;21332;-82
2021/12/01 04:04:40;;;;;;;13.83;11.47;;;;;;;0.35;90.39;97526.19;2222456;79;21019;-83
2021/12/01 04:07:41;;;;;;;12.60;11.10;;;;;;;0.35;90.70;97533.89;2249496;78;21007;-82
2021/12/01 04:10:42;;;;;;;14.27;11.53;;;;;;;0.35;90.61;97535.58;2246094;78;21036;-82
2021/12/01 04:13:42;;;;;;;15.10;10.77;;;;;;;0.35;90.55;97537.73;2250810;78;21344;-82
2021/12/01 04:16:43;;;;;;;15.77;13.17;;;;;;;0.35;90.64;97533.02;2242519;78;21041;-80
2021/12/01 04:19:45;;;;;;;17.37;13.97;;;;;;;0.37;90.66;97537.78;2252792;78;21066;-80
2021/12/01 04:22:45;;;;;;;19.03;14.30;;;;;;;0.39;90.62;97543.84;2217886;78;21432;-80
2021/12/01 04:25:46;;;;;;;20.77;15.10;;;;;;;0.39;90.31;97552.41;2229634;78;21015;-81
2021/12/01 04:28:46;;;;;;;15.03;13.23;;;;;;;0.43;90.47;97560.66;2244996;78;21398;-79
2021/12/01 04:31:47;;;;;;;32.97;19.43;;;;;;;0.47;90.37;97561.21;2243715;78;21506;-81
2021/12/01 04:34:48;;;;;;;18.70;14.83;;;;;;;0.50;90.32;97570.30;2243581;78;21022;-80
2021/12/01 04:37:49;;;;;;;16.00;13.83;;;;;;;0.54;90.19;97573.83;2245612;78;21014;-80
2021/12/01 04:40:49;;;;;;;18.10;13.47;;;;;;;0.55;89.92;97579.01;2230454;78;20995;-80
2021/12/01 04:43:52;;;;;;;17.27;14.30;;;;;;;0.57;89.92;97581.62;2229077;78;20979;-80
2021/12/01 04:46:56;;;;;;;15.33;13.23;;;;;;;0.60;90.06;97582.59;2246225;78;21002;-82
2021/12/01 04:49:54;;;;;;;77.07;25.73;;;;;;;0.64;89.80;97579.28;2244754;78;21035;-80
2021/12/01 04:52:57;;;;;;;72.43;23.90;;;;;;;0.66;89.69;97587.45;2204700;78;20964;-81
2021/12/01 04:55:57;;;;;;;98.67;29.43;;;;;;;0.66;89.75;97597.31;2213732;78;21515;-82
2021/12/01 05:02:01;;;;;;;33.50;17.50;;;;;;;0.70;89.62;97616.25;2215940;78;21026;-81
2021/12/01 05:05:01;;;;;;;23.13;12.60;;;;;;;0.68;89.56;97618.77;2243142;78;20999;-82
2021/12/01 05:08:02;;;;;;;15.83;10.63;;;;;;;0.72;89.71;97625.75;2234460;78;20991;-81
2021/12/01 05:11:02;;;;;;;16.23;12.03;;;;;;;0.71;89.44;97624.00;2254947;78;20968;-81
2021/12/01 05:14:03;;;;;;;11.97;10.40;;;;;;;0.67;89.40;97626.44;2252307;78;21023;-81
2021/12/01 05:17:03;;;;;;;12.00;10.23;;;;;;;0.62;89.40;97623.31;2228302;78;21004;-81
2021/12/01 05:20:04;;;;;;;11.93;10.30;;;;;;;0.58;89.42;97625.33;2224069;78;20984;-81
2021/12/01 05:23:05;;;;;;;12.07;9.90;;;;;;;0.53;89.58;97633.30;2224788;78;21016;-82
2021/12/01 05:26:07;;;;;;;12.57;9.80;;;;;;;0.56;89.77;97637.24;2253013;78;21388;-82
2021/12/01 05:29:08;;;;;;;11.50;9.83;;;;;;;0.59;89.66;97645.05;2240981;78;21038;-82
2021/12/01 05:32:09;;;;;;;11.20;10.03;;;;;;;0.63;89.56;97658.44;2237358;78;21379;-81
2021/12/01 05:35:09;;;;;;;12.10;10.30;;;;;;;0.64;89.71;97660.18;2240860;78;20978;-81
2021/12/01 05:38:10;;;;;;;12.57;11.27;;;;;;;0.70;89.72;97659.50;2204888;79;21003;-79
2021/12/01 05:41:10;;;;;;;16.47;12.30;;;;;;;0.75;89.80;97651.52;2252184;78;21038;-83
2021/12/01 05:44:11;;;;;;;22.33;14.90;;;;;;;0.85;90.01;97641.13;2264248;78;20990;-81
2021/12/01 05:47:11;;;;;;;19.27;13.43;;;;;;;0.89;89.62;97645.56;2239670;78;21006;-81
2021/12/01 05:50:12;;;;;;;19.10;13.27;;;;;;;0.94;89.68;97642.30;2242357;78;21821;-81
2021/12/01 05:53:13;;;;;;;18.20;14.00;;;;;;;1.00;89.52;97644.19;2241625;78;20939;-81
2021/12/01 05:56:14;;;;;;;93.57;58.50;;;;;;;1.04;89.29;97649.88;2232267;78;21485;-81
2021/12/01 05:59:14;;;;;;;25.03;17.33;;;;;;;1.05;89.23;97643.91;2245642;78;21015;-81
2021/12/01 06:02:15;;;;;;;31.67;20.03;;;;;;;1.12;89.19;97650.97;2247815;78;20948;-83
2021/12/01 06:05:16;;;;;;;29.20;23.27;;;;;;;1.20;89.49;97657.62;2237057;78;21003;-81
2021/12/01 06:08:16;;;;;;;25.27;22.10;;;;;;;1.54;90.08;97668.45;2232882;78;20983;-83
2021/12/01 06:11:17;;;;;;;25.03;20.93;;;;;;;1.53;88.90;97677.88;2244072;78;20979;-79
2021/12/01 06:14:17;;;;;;;19.83;16.67;;;;;;;1.53;88.96;97684.72;2245259;78;21042;-78
2021/12/01 06:17:18;;;;;;;18.60;15.67;;;;;;;1.60;89.02;97691.37;2245907;78;21372;-80
2021/12/01 06:23:23;;;;;;;18.05;15.35;;;;;;;1.69;88.57;97699.75;2168606;78;20991;-79
2021/12/01 06:26:23;;;;;;;19.77;16.40;;;;;;;1.72;87.98;97692.53;2246333;78;21042;-82
2021/12/01 06:29:24;;;;;;;18.33;14.33;;;;;;;1.76;88.41;97690.54;2238487;78;20986;-81
2021/12/01 06:32:24;;;;;;;17.60;13.40;;;;;;;1.79;87.92;97697.05;2219850;78;21003;-79
2021/12/01 06:35:25;;;;;;;12.47;11.17;;;;;;;1.85;88.05;97699.80;2228910;78;20996;-81
2021/12/01 06:38:25;;;;;;;13.03;11.07;;;;;;;1.87;87.52;97695.16;2231473;78;21411;-81
2021/12/01 06:41:26;;;;;;;12.33;11.13;;;;;;;1.86;87.23;97694.69;2238214;78;21362;-82
2021/12/01 06:44:30;;;;;;;11.80;10.60;;;;;;;1.91;87.71;97693.12;2226497;78;20960;-80
2021/12/01 06:47:29;;;;;;;11.93;10.70;;;;;;;1.98;87.52;97694.56;2216979;78;21020;-81
2021/12/01 06:50:29;;;;;;;22.50;19.27;;;;;;;2.00;87.30;97680.91;2221842;78;20975;-81
2021/12/01 06:53:30;;;;;;;18.23;16.33;;;;;;;2.06;87.38;97671.19;2238625;78;21010;-80
2021/12/01 06:56:31;;;;;;;13.47;11.70;;;;;;;2.08;87.03;97673.39;2215079;78;20983;-81
2021/12/01 06:59:31;;;;;;;14.43;10.53;;;;;;;2.05;86.96;97681.03;2227202;78;20984;-82
2021/12/01 07:02:32;;;;;;;12.90;10.33;;;;;;;2.13;87.29;97684.67;2262045;78;21406;-81
2021/12/01 07:05:32;;;;;;;12.87;10.50;;;;;;;2.22;87.05;97681.05;2243656;78;21321;-82
2021/12/01 07:08:35;;;;;;;11.70;10.47;;;;;;;2.24;86.44;97680.27;2235131;78;20964;-79
2021/12/01 07:11:35;;;;;;;10.17;9.23;;;;;;;2.28;86.66;97664.89;2234050;78;21038;-81
2021/12/01 07:14:36;;;;;;;10.47;9.47;;;;;;;2.29;86.09;97662.77;2218201;78;20956;-81
2021/12/01 07:17:36;;;;;;;12.33;11.00;;;;;;;2.27;86.01;97665.30;2243767;78;21011;-81
2021/12/01 07:20:37;;;;;;;12.57;10.57;;;;;;;2.27;85.87;97667.02;2232238;78;20955;-81
2021/12/01 07:23:37;;;;;;;11.33;10.27;;;;;;;2.29;85.92;97673.94;2227462;79;21402;-82
2021/12/01 07:26:38;;;;;;;14.30;12.30;;;;;;;2.33;85.68;97666.75;2227057;78;21019;-81
2021/12/01 07:29:38;;;;;;;12.30;11.00;;;;;;;2.34;85.42;97666.33;2245435;78;20971;-81
2021/12/01 07:32:39;;;;;;;11.47;9.67;;;;;;;2.36;85.35;97661.67;2240875;78;20965;-80
2021/12/01 07:35:40;;;;;;;10.40;9.30;;;;;;;2.42;85.26;97654.10;2240236;78;20988;-80
2021/12/01 07:38:40;;;;;;;12.60;9.70;;;;;;;2.47;85.03;97642.20;2239953;78;21682;-80
2021/12/01 07:41:41;;;;;;;13.57;11.50;;;;;;;2.51;84.84;97637.58;2243559;78;21016;-78
2021/12/01 07:44:41;;;;;;;17.20;12.67;;;;;;;2.52;84.87;97636.75;2235330;78;20995;-80
2021/12/01 07:47:42;;;;;;;62.30;35.63;;;;;;;2.52;84.42;97622.58;2227292;78;20959;-81
2021/12/01 07:50:42;;;;;;;23.93;16.30;;;;;;;2.51;84.53;97616.10;2238340;78;21046;-81
2021/12/01 07:53:43;;;;;;;17.93;12.60;;;;;;;2.50;84.39;97611.37;2235372;78;20944;-82
2021/12/01 07:56:44;;;;;;;20.90;14.50;;;;;;;2.48;84.13;97614.33;2225963;78;20995;-82
2021/12/01 07:59:47;;;;;;;15.33;12.50;;;;;;;2.38;83.88;97629.52;2243520;78;20978;-80
2021/12/01 08:02:48;;;;;;;17.80;12.70;;;;;;;2.33;83.91;97630.70;2233613;78;20995;-81
2021/12/01 08:05:48;;;;;;;17.90;11.03;;;;;;;2.31;84.03;97628.92;2231026;78;21007;-81
2021/12/01 08:08:49;;;;;;;12.23;9.13;;;;;;;2.32;83.86;97627.67;2251740;78;21295;-79
2021/12/01 08:11:50;;;;;;;10.90;7.93;;;;;;;2.31;83.82;97632.36;2230606;78;21034;-81
2021/12/01 08:14:50;;;;;;;8.00;6.90;;;;;;;2.31;83.75;97628.50;2248358;78;20976;-81
2021/12/01 08:17:51;;;;;;;11.67;7.30;;;;;;;2.39;83.61;97621.83;2243440;78;20999;-80
2021/12/01 08:20:52;;;;;;;9.30;7.43;;;;;;;2.48;83.71;97625.92;2235786;78;21343;-80
2021/12/01 08:23:52;;;;;;;8.23;6.63;;;;;;;2.55;83.21;97615.34;2251320;78;21038;-82
2021/12/01 08:26:53;;;;;;;7.07;6.30;;;;;;;2.55;82.08;97615.34;2245151;78;20992;-81
2021/12/01 08:29:53;;;;;;;9.93;7.23;;;;;;;2.59;82.16;97618.44;2217005;78;20964;-79
2021/12/01 08:32:54;;;;;;;10.40;6.77;;;;;;;2.66;82.65;97614.33;2256099;78;20998;-81
2021/12/01 08:35:54;;;;;;;6.83;5.93;;;;;;;2.75;82.19;97611.55;2232799;78;20972;-81
2021/12/01 08:38:55;;;;;;;8.60;5.60;;;;;;;2.86;81.71;97609.21;2237416;78;21422;-80
2021/12/01 08:41:55;;;;;;;9.80;6.30;;;;;;;2.94;81.71;97608.96;2233862;78;21014;-81
2021/12/01 08:44:56;;;;;;;10.27;7.27;;;;;;;2.99;81.05;97597.05;2209631;78;21035;-82
2021/12/01 08:47:57;;;;;;;14.63;7.77;;;;;;;3.06;80.63;97582.16;2226305;78;20955;-82
2021/12/01 08:51:01;;;;;;;8.53;6.43;;;;;;;3.06;80.05;97582.16;2228864;78;20988;-81
2021/12/01 08:54:00;;;;;;;9.47;6.47;;;;;;;3.12;79.66;97579.70;2236181;78;21637;-81
2021/12/01 08:57:00;;;;;;;8.23;6.03;;;;;;;3.16;80.58;97580.22;2242421;78;20968;-81
2021/12/01 09:00:01;;;;;;;9.03;6.60;;;;;;;3.26;80.08;97578.70;2218837;78;21402;-81
2021/12/01 09:03:01;;;;;;;8.20;6.43;;;;;;;3.34;80.04;97577.14;2246102;78;20971;-81
2021/12/01 09:06:02;;;;;;;7.10;6.33;;;;;;;3.36;80.28;97567.72;2253676;78;20963;-81
2021/12/01 09:09:02;;;;;;;8.33;6.47;;;;;;;3.35;79.76;97565.11;2227290;78;21362;-81
2021/12/01 09:12:03;;;;;;;7.27;6.20;;;;;;;3.40;80.46;97565.66;2220123;78;21019;-80
2021/12/01 09:15:03;;;;;;;6.87;6.07;;;;;;;3.45;79.34;97563.16;2252045;78;21003;-82
2021/12/01 09:18:04;;;;;;;8.50;6.20;;;;;;;3.54;79.87;97564.66;2263545;78;21045;-82
2021/12/01 09:21:04;;;;;;;7.77;5.97;;;;;;;3.60;79.67;97553.16;2237468;78;20988;-82
2021/12/01 09:24:05;;;;;;;9.10;5.47;;;;;;;3.61;79.52;97551.45;2232010;78;20932;-81
2021/12/01 09:27:05;;;;;;;17.03;5.93;;;;;;;3.71;79.13;97549.48;2223234;78;21450;-79
2021/12/01 09:30:06;;;;;;;8.63;5.17;;;;;;;3.81;79.49;97547.09;2243555;78;20974;-81
2021/12/01 09:33:06;;;;;;;14.63;5.40;;;;;;;3.96;78.96;97534.87;2253686;78;20975;-81
2021/12/01 09:36:07;;;;;;;6.27;5.67;;;;;;;4.08;78.71;97532.48;2244526;78;21390;-80
2021/12/01 09:39:08;;;;;;;6.37;5.40;;;;;;;4.20;78.75;97537.41;2235217;78;21416;-81
2021/12/01 09:42:08;;;;;;;6.33;5.33;;;;;;;4.34;78.27;97529.48;2243270;78;20964;-81
2021/12/01 09:45:09;;;;;;;7.10;5.00;;;;;;;4.41;77.13;97519.25;2216784;78;21324;-79
2021/12/01 09:48:09;;;;;;;6.67;5.20;;;;;;;4.51;77.94;97506.05;2244301;78;20976;-82
2021/12/01 09:51:10;;;;;;;7.30;4.90;;;;;;;4.57;76.58;97511.72;2218179;78;20971;-81
2021/12/01 09:54:11;;;;;;;7.43;6.20;;;;;;;4.55;76.54;97518.59;2216921;78;20988;-81
2021/12/01 09:57:14;;;;;;;9.43;5.20;;;;;;;4.52;76.52;97510.79;2224671;78;21669;-80
2021/12/01 10:00:14;;;;;;;9.67;6.20;;;;;;;4.47;76.53;97511.59;2225919;78;21031;-80
2021/12/01 10:03:14;;;;;;;6.97;4.83;;;;;;;4.47;77.05;97502.97;2243836;78;20999;-81
2021/12/01 10:06:16;;;;;;;13.97;8.27;;;;;;;4.46;75.19;97490.91;2236195;78;21368;-80
2021/12/01 10:09:17;;;;;;;9.83;7.83;;;;;;;4.42;77.14;97484.82;2245479;78;21091;-80
2021/12/01 10:12:17;;;;;;;13.17;10.37;;;;;;;4.52;77.20;97478.06;2239839;78;20999;-80
2021/12/01 10:15:18;;;;;;;8.07;5.93;;;;;;;4.56;76.70;97468.22;2227189;78;20967;-80
2021/12/01 10:18:18;;;;;;;22.37;14.70;;;;;;;4.61;76.13;97472.15;2255900;78;21078;-80
2021/12/01 10:21:19;;;;;;;11.60;7.70;;;;;;;4.68;76.20;97464.92;2249881;78;21014;-81
2021/12/01 10:24:19;;;;;;;22.23;10.67;;;;;;;4.79;76.20;97465.92;2225369;78;20971;-81
2021/12/01 10:27:20;;;;;;;12.63;7.73;;;;;;;4.82;75.83;97459.50;2234872;78;20980;-81
2021/12/01 10:30:20;;;;;;;11.73;7.93;;;;;;;4.91;75.40;97449.27;2243705;78;21060;-81
2021/12/01 10:33:21;;;;;;;16.47;9.10;;;;;;;5.02;75.95;97448.97;2242077;78;20983;-80
2021/12/01 10:36:21;;;;;;;10.97;7.10;;;;;;;5.08;75.99;97448.16;2226114;78;21312;-80
2021/12/01 10:39:22;;;;;;;13.93;8.07;;;;;;;5.15;75.23;97443.92;2234122;78;20959;-79
2021/12/01 10:42:22;;;;;;;11.23;7.57;;;;;;;5.17;75.64;97446.97;2243328;78;21010;-79
2021/12/01 10:45:23;;;;;;;19.60;10.93;;;;;;;5.22;75.71;97445.33;2244229;78;20991;-77
2021/12/01 10:48:23;;;;;;;14.50;9.33;;;;;;;5.20;75.30;97430.61;2229292;78;21481;-77
2021/12/01 10:51:24;;;;;;;14.07;8.30;;;;;;;5.21;75.23;97427.21;2222804;78;20994;-81
2021/12/01 10:54:26;;;;;;;17.50;9.03;;;;;;;5.18;75.21;97424.55;2235786;78;21023;-80
2021/12/01 10:57:26;;;;;;;13.83;8.10;;;;;;;5.10;75.49;97430.52;2243639;78;21647;-80
2021/12/01 11:00:27;;;;;;;14.97;8.77;;;;;;;5.02;74.95;97423.10;2197475;79;20960;-80
2021/12/01 11:03:30;;;;;;;13.00;7.13;;;;;;;4.96;75.04;97404.94;2240810;78;20975;-80
2021/12/01 11:06:34;;;;;;;16.20;8.37;;;;;;;4.84;73.77;97406.09;2239001;78;21022;-80
2021/12/01 11:09:33;;;;;;;14.77;7.77;;;;;;;4.78;74.56;97401.72;2221785;78;21040;-81
2021/12/01 11:12:33;;;;;;;15.73;8.47;;;;;;;4.77;74.09;97401.28;2228624;78;20972;-80
2021/12/01 11:15:34;;;;;;;17.37;8.87;;;;;;;4.75;74.31;97401.69;2197515;78;20975;-80
2021/12/01 11:18:34;;;;;;;18.80;9.33;;;;;;;4.69;74.58;97395.16;2202664;79;21643;-79
2021/12/01 11:21:35;;;;;;;17.47;8.30;;;;;;;4.65;74.43;97392.52;2261048;78;20967;-81
2021/12/01 11:24:35;;;;;;;19.17;9.97;;;;;;;4.65;75.07;97393.38;2258894;78;20955;-82
2021/12/01 11:27:36;;;;;;;19.00;10.30;;;;;;;4.63;74.83;97382.58;2248994;78;21351;-81
2021/12/01 11:30:37;;;;;;;24.03;11.30;;;;;;;4.62;74.68;97384.30;2248712;78;20959;-79
2021/12/01 11:33:43;;;;;;;32.93;13.10;;;;;;;4.58;74.84;97376.49;2230742;78;20996;-81
2021/12/01 11:36:40;;;;;;;21.00;12.33;;;;;;;4.50;75.08;97375.11;2233096;78;21063;-81
2021/12/01 11:39:41;;;;;;;29.20;10.77;;;;;;;4.42;75.41;97366.39;2235007;78;21352;-81
2021/12/01 11:42:41;;;;;;;24.23;13.37;;;;;;;4.36;75.66;97353.41;2231820;78;21358;-82
2021/12/01 11:45:42;;;;;;;25.70;12.20;;;;;;;4.33;76.25;97363.24;2243891;78;21008;-81
2021/12/01 11:48:42;;;;;;;22.97;13.33;;;;;;;4.27;76.38;97348.96;2225205;79;20923;-82
2021/12/01 11:51:44;;;;;;;19.43;10.77;;;;;;;4.25;76.71;97353.66;2257157;78;21003;-80
2021/12/01 11:54:44;;;;;;;30.57;12.27;;;;;;;4.20;76.86;97339.40;2261872;78;21737;-82
2021/12/01 11:57:45;;;;;;;31.60;13.70;;;;;;;4.15;77.32;97337.19;2228100;78;21015;-79
2021/12/01 12:00:48;;;;;;;22.30;11.97;;;;;;;4.08;77.85;97323.75;2236304;78;21453;-81
2021/12/01 12:03:48;;;;;;;21.27;10.90;;;;;;;4.10;78.03;97320.77;2232530;79;20976;-81
2021/12/01 12:06:49;;;;;;;21.90;11.53;;;;;;;4.02;78.26;97309.47;2243716;78;20999;-80
2021/12/01 12:09:49;;;;;;;23.10;10.30;;;;;;;3.96;78.40;97297.77;2246618;78;21355;-80
2021/12/01 12:12:55;;;;;;;23.57;11.37;;;;;;;3.89;78.51;97295.53;2235800;78;21020;-81
2021/12/01 12:15:54;;;;;;;19.20;11.20;;;;;;;3.85;78.73;97286.02;2252369;78;21037;-79
2021/12/01 12:18:55;;;;;;;21.50;11.77;;;;;;;3.77;78.82;97282.47;2237353;79;21003;-80
2021/12/01 12:21:56;;;;;;;26.77;13.07;;;;;;;3.71;79.08;97273.35;2199951;79;20965;-81
2021/12/01 12:24:57;;;;;;;16.50;11.17;;;;;;;3.68;79.42;97265.14;2227425;78;21407;-82
2021/12/01 12:27:57;;;;;;;19.07;11.40;;;;;;;3.69;79.41;97256.55;2242312;78;20972;-81
2021/12/01 12:30:58;;;;;;;21.10;10.63;;;;;;;3.67;79.63;97258.25;2226458;78;21011;-82
2021/12/01 12:33:59;;;;;;;20.30;10.37;;;;;;;3.67;79.79;97252.22;2241829;78;21391;-83
2021/12/01 12:37:00;;;;;;;16.87;10.13;;;;;;;3.60;79.81;97253.85;2254631;78;21013;-82
2021/12/01 12:40:01;;;;;;;23.07;10.63;;;;;;;3.54;80.13;97243.45;2243755;78;21026;-83
2021/12/01 12:43:02;;;;;;;22.23;11.23;;;;;;;3.49;80.44;97240.80;2248608;78;21444;-81
2021/12/01 12:46:02;;;;;;;21.97;10.50;;;;;;;3.43;80.39;97245.84;2247433;78;20995;-81
2021/12/01 12:49:03;;;;;;;25.87;12.43;;;;;;;3.40;80.57;97234.62;2240676;78;20975;-80
2021/12/01 12:52:03;;;;;;;24.80;14.33;;;;;;;3.35;80.56;97229.82;2238733;78;21034;-81
2021/12/01 12:55:04;;;;;;;24.53;12.23;;;;;;;3.32;80.85;97227.20;2228497;78;21004;-83
2021/12/01 12:58:04;;;;;;;23.20;12.23;;;;;;;3.31;81.01;97220.30;2258194;78;21681;-81
2021/12/01 13:01:05;;;;;;;18.57;9.87;;;;;;;3.30;81.16;97215.99;2238362;78;21002;-82
2021/12/01 13:04:05;;;;;;;21.97;10.70;;;;;;;3.24;81.09;97210.33;2264477;78;20999;-84
2021/12/01 13:07:06;;;;;;;16.73;8.90;;;;;;;3.20;81.36;97208.12;2234900;78;21023;-81
2021/12/01 13:10:06;;;;;;;15.63;8.60;;;;;;;3.18;81.67;97203.37;2235418;78;21030;-81
2021/12/01 13:13:07;;;;;;;20.07;9.17;;;;;;;3.11;81.68;97198.97;2251687;78;20999;-80
2021/12/01 13:16:08;;;;;;;17.63;8.93;;;;;;;3.05;81.84;97192.44;2231492;78;21397;-83
2021/12/01 13:19:08;;;;;;;15.10;8.87;;;;;;;3.02;82.04;97185.95;2266275;78;20967;-84
2021/12/01 13:22:09;;;;;;;19.90;8.53;;;;;;;2.98;82.28;97179.01;2231510;78;21450;-81
2021/12/01 13:25:09;;;;;;;12.50;8.10;;;;;;;2.98;82.32;97168.70;2207425;78;21011;-81
2021/12/01 13:28:10;;;;;;;21.27;9.67;;;;;;;2.92;82.13;97158.72;2215137;78;21004;-83
2021/12/01 13:31:11;;;;;;;19.30;9.20;;;;;;;2.87;82.51;97158.66;2244032;78;20972;-83
2021/12/01 13:34:11;;;;;;;20.83;9.93;;;;;;;2.86;82.62;97151.34;2256997;78;21343;-82
2021/12/01 13:37:12;;;;;;;20.57;9.40;;;;;;;2.86;82.65;97144.03;2236307;78;21629;-81
2021/12/01 13:40:12;;;;;;;18.50;9.97;;;;;;;2.87;82.87;97132.47;2246079;78;20983;-81
2021/12/01 13:43:13;;;;;;;17.53;9.87;;;;;;;2.87;82.94;97136.33;2223486;78;21066;-82
2021/12/01 13:46:13;;;;;;;16.87;10.50;;;;;;;2.87;82.88;97129.88;2245282;78;21012;-82
2021/12/01 13:49:14;;;;;;;19.90;9.77;;;;;;;2.83;83.16;97131.11;2247401;78;21032;-81
2021/12/01 13:52:16;;;;;;;20.90;9.80;;;;;;;2.85;83.14;97119.11;2204131;78;20990;-83
2021/12/01 13:55:18;;;;;;;17.37;8.73;;;;;;;2.84;83.31;97105.78;2217100;78;20992;-82
2021/12/01 13:58:19;;;;;;;19.70;10.53;;;;;;;2.84;83.52;97108.36;2258237;78;21071;-81
2021/12/01 14:01:20;;;;;;;26.27;13.53;;;;;;;2.86;83.66;97107.53;2225043;78;21116;-82
2021/12/01 14:04:20;;;;;;;21.53;13.27;;;;;;;2.87;83.73;97096.80;2220385;78;21502;-83
2021/12/01 14:07:21;;;;;;;26.77;14.03;;;;;;;2.88;83.83;97087.81;2235486;78;20999;-82
2021/12/01 14:10:21;;;;;;;19.83;11.53;;;;;;;2.88;84.18;97085.66;2205243;79;20972;-81
2021/12/01 14:13:23;;;;;;;19.43;10.37;;;;;;;2.91;84.08;97077.09;2234119;78;21407;-80
2021/12/01 14:16:24;;;;;;;21.07;10.73;;;;;;;2.93;84.13;97062.52;2241234;78;21067;-84
2021/12/01 14:19:24;;;;;;;21.23;10.90;;;;;;;2.94;84.57;97065.12;2238778;78;21398;-82
2021/12/01 14:22:25;;;;;;;23.50;12.07;;;;;;;2.97;84.58;97057.42;2224499;78;21418;-82